createdAt,value
2022-11-05T00:00:50.778Z,8.81
2022-11-05T00:03:33.780Z,8.72
2022-11-05T00:06:25.087Z,8.73
2022-11-05T00:09:08.039Z,8.81
2022-11-05T00:11:51.217Z,8.74
2022-11-05T00:14:34.005Z,8.71
2022-11-05T00:17:04.222Z,8.76
2022-11-05T00:19:34.774Z,8.75
2022-11-05T00:22:19.842Z,8.72
2022-11-05T00:25:02.702Z,8.76
2022-11-05T00:27:35.689Z,8.77
2022-11-05T00:30:07.044Z,8.77
2022-11-05T00:32:37.268Z,8.77
2022-11-05T00:35:08.773Z,8.76
2022-11-05T00:37:45.640Z,8.72
2022-11-05T00:40:19.182Z,8.75
2022-11-05T00:43:01.580Z,8.74
2022-11-05T00:45:32.946Z,8.73
2022-11-05T00:48:15.312Z,8.63
2022-11-05T00:50:45.570Z,8.70
2022-11-05T00:53:18.591Z,8.73
2022-11-05T00:55:49.463Z,8.73
2022-11-05T00:58:21.586Z,8.73
2022-11-05T01:00:53.372Z,8.72
2022-11-05T01:03:26.958Z,8.73
2022-11-05T01:06:00.446Z,8.70
2022-11-05T01:08:33.138Z,8.70
2022-11-05T01:11:03.373Z,8.70
2022-11-05T01:13:33.732Z,8.67
2022-11-05T01:16:08.185Z,8.62
2022-11-05T01:18:40.703Z,8.64
2022-11-05T01:21:15.886Z,8.64
2022-11-05T01:23:48.620Z,8.62
2022-11-05T01:26:18.834Z,8.64
2022-11-05T01:28:53.545Z,8.66
2022-11-05T01:31:24.536Z,8.62
2022-11-05T01:33:54.488Z,8.61
2022-11-05T01:36:24.691Z,8.63
2022-11-05T01:38:57.389Z,8.59
2022-11-05T01:41:27.743Z,8.55
2022-11-05T01:43:59.788Z,8.57
2022-11-05T01:46:39.272Z,8.62
2022-11-05T01:49:16.379Z,8.61
2022-11-05T01:51:48.995Z,8.54
2022-11-05T01:54:29.548Z,8.57
2022-11-05T01:57:04.663Z,8.51
2022-11-05T01:59:40.549Z,8.48
2022-11-05T02:02:11.394Z,8.49
2022-11-05T02:04:44.616Z,8.54
2022-11-05T02:07:17.392Z,8.54
2022-11-05T02:09:54.855Z,8.46
2022-11-05T02:12:26.044Z,8.46
2022-11-05T02:15:00.771Z,8.45
2022-11-05T02:17:43.181Z,8.50
2022-11-05T02:20:39.498Z,8.50
2022-11-05T02:23:45.746Z,8.42
2022-11-05T02:26:40.067Z,8.38
2022-11-05T02:29:45.097Z,8.29
2022-11-05T02:32:25.094Z,8.39
2022-11-05T02:35:04.686Z,8.35
2022-11-05T02:37:42.527Z,8.25
2022-11-05T02:40:19.644Z,8.21
2022-11-05T02:42:59.503Z,8.23
2022-11-05T02:45:38.550Z,8.19
2022-11-05T02:48:17.025Z,8.20
2022-11-05T02:50:55.543Z,8.17
2022-11-05T02:53:35.360Z,8.16
2022-11-05T02:56:12.132Z,8.06
2022-11-05T02:58:42.108Z,8.09
2022-11-05T03:01:13.977Z,8.15
2022-11-05T03:03:50.023Z,8.17
2022-11-05T03:06:44.791Z,8.06
2022-11-05T03:09:30.962Z,8.07
2022-11-05T03:12:11.947Z,8.12
2022-11-05T03:14:47.645Z,8.10
2022-11-05T03:17:29.968Z,8.01
2022-11-05T03:20:07.565Z,8.00
2022-11-05T03:22:41.728Z,8.05
2022-11-05T03:25:15.692Z,8.13
2022-11-05T03:27:49.961Z,8.15
2022-11-05T03:30:21.830Z,8.09
2022-11-05T03:33:01.709Z,8.09
2022-11-05T03:35:41.186Z,8.07
2022-11-05T03:38:34.051Z,8.05
2022-11-05T03:41:31.816Z,8.05
2022-11-05T03:44:39.505Z,8.05
2022-11-05T03:47:27.814Z,8.00
2022-11-05T03:50:52.821Z,8.03
2022-11-05T03:57:15.976Z,8.02
2022-11-05T04:00:00.144Z,7.99
2022-11-05T04:02:45.268Z,8.03
2022-11-05T04:05:18.567Z,7.99
2022-11-05T04:08:01.816Z,7.85
2022-11-05T04:10:56.122Z,7.91
2022-11-05T04:13:27.943Z,7.96
2022-11-05T04:16:11.696Z,7.91
2022-11-05T04:19:01.933Z,7.96
2022-11-05T04:21:44.693Z,7.89
2022-11-05T04:24:19.921Z,7.96
2022-11-05T04:27:14.434Z,7.91
2022-11-05T04:29:57.716Z,7.83
2022-11-05T04:32:47.074Z,7.73
2022-11-05T04:35:20.664Z,7.73
2022-11-05T04:37:51.202Z,7.77
2022-11-05T04:40:21.894Z,7.72
2022-11-05T04:42:56.651Z,7.67
2022-11-05T04:45:28.945Z,7.71
2022-11-05T04:47:59.066Z,7.68
2022-11-05T04:50:29.842Z,7.63
2022-11-05T04:52:59.815Z,7.66
2022-11-05T04:55:30.512Z,7.71
2022-11-05T04:58:03.003Z,7.63
2022-11-05T05:00:33.500Z,7.63
2022-11-05T05:03:03.481Z,7.67
2022-11-05T05:05:33.832Z,7.61
2022-11-05T05:08:04.246Z,7.67
2022-11-05T05:10:35.414Z,7.56
2022-11-05T05:13:08.008Z,7.59
2022-11-05T05:15:40.597Z,7.52
2022-11-05T05:18:11.657Z,7.51
2022-11-05T05:20:54.412Z,7.46
2022-11-05T05:23:24.302Z,7.44
2022-11-05T05:25:54.625Z,7.47
2022-11-05T05:28:27.306Z,7.51
2022-11-05T05:31:01.621Z,7.49
2022-11-05T05:33:31.713Z,7.44
2022-11-05T05:36:07.007Z,7.46
2022-11-05T05:38:40.220Z,7.42
2022-11-05T05:41:10.524Z,7.47
2022-11-05T05:43:43.345Z,7.48
2022-11-05T05:46:20.054Z,7.43
2022-11-05T05:48:52.485Z,7.42
2022-11-05T05:51:23.338Z,7.51
2022-11-05T05:53:53.965Z,7.40
2022-11-05T05:56:24.708Z,7.43
2022-11-05T05:58:57.786Z,7.24
2022-11-05T06:01:28.312Z,7.31
2022-11-05T06:03:58.309Z,7.42
2022-11-05T06:06:28.583Z,7.40
2022-11-05T06:08:58.787Z,7.39
2022-11-05T06:11:29.290Z,7.42
2022-11-05T06:14:02.278Z,7.32
2022-11-05T06:16:35.925Z,7.33
2022-11-05T06:19:06.088Z,7.25
2022-11-05T06:21:37.047Z,7.23
2022-11-05T06:24:07.199Z,7.14
2022-11-05T06:26:42.710Z,7.03
2022-11-05T06:29:15.155Z,7.02
2022-11-05T06:31:45.402Z,7.05
2022-11-05T06:34:15.363Z,7.12
2022-11-05T06:36:45.694Z,7.25
2022-11-05T06:39:15.892Z,7.18
2022-11-05T06:42:12.078Z,7.16
2022-11-05T06:44:39.044Z,7.23
2022-11-05T06:47:09.316Z,7.10
2022-11-05T06:49:39.224Z,7.13
2022-11-05T06:52:09.474Z,7.08
2022-11-05T06:54:39.403Z,7.10
2022-11-05T06:57:09.931Z,7.18
2022-11-05T06:59:42.916Z,7.20
2022-11-05T07:02:16.923Z,7.22
2022-11-05T07:04:47.156Z,7.13
2022-11-05T07:07:17.443Z,7.11
2022-11-05T07:09:47.319Z,7.17
2022-11-05T07:12:17.612Z,7.24
2022-11-05T07:14:50.169Z,7.16
2022-11-05T07:17:21.272Z,7.10
2022-11-05T07:19:51.383Z,6.87
2022-11-05T07:22:21.688Z,6.88
2022-11-05T07:25:00.586Z,6.81
2022-11-05T07:27:35.739Z,6.87
2022-11-05T07:30:10.661Z,6.89
2022-11-05T07:32:41.732Z,6.87
2022-11-05T07:35:13.050Z,6.83
2022-11-05T07:38:04.930Z,6.84
2022-11-05T07:48:06.898Z,6.92
2022-11-05T07:50:39.774Z,6.97
2022-11-05T07:53:22.686Z,6.94
2022-11-05T07:55:53.470Z,7.12
2022-11-05T07:58:25.606Z,7.18
2022-11-05T08:00:55.959Z,7.10
2022-11-05T08:03:28.575Z,7.11
2022-11-05T08:05:58.862Z,7.01
2022-11-05T08:08:28.857Z,7.08
2022-11-05T08:11:05.539Z,7.13
2022-11-05T08:13:36.114Z,7.02
2022-11-05T08:16:08.204Z,7.07
2022-11-05T08:18:40.680Z,7.32
2022-11-05T08:21:10.933Z,7.30
2022-11-05T08:23:42.701Z,7.27
2022-11-05T08:26:12.985Z,7.38
2022-11-05T08:28:42.843Z,7.41
2022-11-05T08:31:14.423Z,7.40
2022-11-05T08:33:46.876Z,7.55
2022-11-05T08:36:17.121Z,7.38
2022-11-05T08:38:46.977Z,7.55
2022-11-05T08:41:17.345Z,7.56
2022-11-05T08:43:47.343Z,7.57
2022-11-05T08:46:17.546Z,7.29
2022-11-05T08:48:49.992Z,7.30
2022-11-05T08:51:20.250Z,7.28
2022-11-05T08:53:50.068Z,7.50
2022-11-05T08:56:20.284Z,7.41
2022-11-05T08:58:50.292Z,7.38
2022-11-05T09:01:20.666Z,7.44
2022-11-05T09:03:55.573Z,7.59
2022-11-05T09:06:25.822Z,7.56
2022-11-05T09:08:55.715Z,7.63
2022-11-05T09:11:43.052Z,7.71
2022-11-05T09:14:15.766Z,7.86
2022-11-05T09:16:46.057Z,8.03
2022-11-05T09:19:18.543Z,8.31
2022-11-05T09:21:48.903Z,8.20
2022-11-05T09:24:19.069Z,8.40
2022-11-05T09:26:49.262Z,8.57
2022-11-05T09:29:19.071Z,8.49
2022-11-05T09:31:49.309Z,8.53
2022-11-05T09:34:21.685Z,8.68
2022-11-05T09:36:51.832Z,8.75
2022-11-05T09:39:21.650Z,8.85
2022-11-05T09:41:53.051Z,9.07
2022-11-05T09:44:25.973Z,9.00
2022-11-05T09:46:59.281Z,9.17
2022-11-05T09:49:35.366Z,9.49
2022-11-05T09:52:06.128Z,9.46
2022-11-05T09:54:35.998Z,9.62
2022-11-05T09:57:11.159Z,9.53
2022-11-05T09:59:47.521Z,9.62
2022-11-05T10:02:22.217Z,9.79
2022-11-05T10:04:58.534Z,9.91
2022-11-05T10:07:32.492Z,10.18
2022-11-05T10:10:05.548Z,10.21
2022-11-05T10:12:45.026Z,10.06
2022-11-05T10:15:22.166Z,10.14
2022-11-05T10:17:56.699Z,10.37
2022-11-05T10:20:34.800Z,10.72
2022-11-05T10:23:17.704Z,10.40
2022-11-05T10:25:50.273Z,10.62
2022-11-05T10:28:23.406Z,10.75
2022-11-05T10:30:55.596Z,11.09
2022-11-05T10:33:32.722Z,11.18
2022-11-05T10:36:07.956Z,11.14
2022-11-05T10:38:38.436Z,11.17
2022-11-05T10:41:33.872Z,11.29
2022-11-05T10:44:18.672Z,11.28
2022-11-05T10:46:57.838Z,11.61
2022-11-05T10:49:44.991Z,11.72
2022-11-05T10:52:24.861Z,11.99
2022-11-05T10:54:58.731Z,11.92
2022-11-05T10:57:35.475Z,12.08
2022-11-05T11:00:21.580Z,11.87
2022-11-05T11:02:53.950Z,11.95
2022-11-05T11:05:28.227Z,12.06
2022-11-05T11:08:26.721Z,12.31
2022-11-05T11:11:00.493Z,12.39
2022-11-05T11:13:33.424Z,12.63
2022-11-05T11:16:18.051Z,12.44
2022-11-05T11:18:47.872Z,12.44
2022-11-05T11:21:20.254Z,12.34
2022-11-05T11:23:59.756Z,12.80
2022-11-05T11:26:33.790Z,12.74
2022-11-05T11:29:10.002Z,12.85
2022-11-05T11:31:42.274Z,12.30
2022-11-05T11:34:19.898Z,12.76
2022-11-05T11:36:52.883Z,13.20
2022-11-05T11:39:28.945Z,13.03
2022-11-05T11:42:02.947Z,13.48
2022-11-05T11:44:37.384Z,13.26
2022-11-05T11:47:13.084Z,13.93
2022-11-05T11:49:47.773Z,13.77
2022-11-05T11:52:31.397Z,14.01
2022-11-05T11:55:22.178Z,14.19
2022-11-05T11:57:54.745Z,14.04
2022-11-05T12:00:27.298Z,14.61
2022-11-05T12:03:22.981Z,14.02
2022-11-05T12:06:04.359Z,13.61
2022-11-05T12:08:57.334Z,13.01
2022-11-05T12:11:42.057Z,13.06
2022-11-05T12:14:25.047Z,13.82
2022-11-05T12:17:11.036Z,13.32
2022-11-05T12:19:55.511Z,14.25
2022-11-05T12:22:36.597Z,14.29
2022-11-05T12:25:20.028Z,15.17
2022-11-05T12:28:06.284Z,15.03
2022-11-05T12:30:48.368Z,14.97
2022-11-05T12:33:31.170Z,14.32
2022-11-05T12:36:15.928Z,14.49
2022-11-05T12:39:09.000Z,14.55
2022-11-05T12:41:50.819Z,14.77
2022-11-05T12:44:44.936Z,14.47
2022-11-05T12:47:41.725Z,14.45
2022-11-05T12:50:25.567Z,14.11
2022-11-05T12:53:36.646Z,14.58
2022-11-05T12:56:15.947Z,14.38
2022-11-05T12:58:50.634Z,14.52
2022-11-05T13:01:31.317Z,14.20
2022-11-05T13:04:06.964Z,13.31
2022-11-05T13:06:41.380Z,13.41
2022-11-05T13:09:17.579Z,13.70
2022-11-05T13:11:54.059Z,13.90
2022-11-05T13:14:29.578Z,13.96
2022-11-05T13:17:05.630Z,14.33
2022-11-05T13:19:41.029Z,14.25
2022-11-05T13:22:19.078Z,14.16
2022-11-05T13:24:52.222Z,14.52
2022-11-05T13:27:45.387Z,14.52
2022-11-05T13:30:18.694Z,13.97
2022-11-05T13:32:56.674Z,13.97
2022-11-05T13:35:32.069Z,13.62
2022-11-05T13:38:19.742Z,14.49
2022-11-05T13:41:04.827Z,14.09
2022-11-05T13:43:53.416Z,14.02
2022-11-05T13:46:43.764Z,13.38
2022-11-05T13:49:47.229Z,13.58
2022-11-05T13:52:38.531Z,12.74
2022-11-05T13:55:40.511Z,13.19
2022-11-05T13:58:27.367Z,13.25
2022-11-05T14:01:11.030Z,13.46
2022-11-05T14:03:47.802Z,13.70
2022-11-05T14:06:28.378Z,13.35
2022-11-05T14:09:02.363Z,14.12
2022-11-05T14:11:38.503Z,13.79
2022-11-05T14:14:12.390Z,13.61
2022-11-05T14:16:53.691Z,13.59
2022-11-05T14:19:35.701Z,14.09
2022-11-05T14:22:39.837Z,13.94
2022-11-05T14:25:55.378Z,14.02
2022-11-05T14:28:44.732Z,14.21
2022-11-05T14:32:13.062Z,13.84
2022-11-05T14:34:47.049Z,14.03
2022-11-05T14:37:25.591Z,13.66
2022-11-05T14:40:00.113Z,14.06
2022-11-05T14:42:33.050Z,14.08
2022-11-05T14:45:23.075Z,13.94
2022-11-05T14:47:56.225Z,14.38
2022-11-05T14:50:38.429Z,14.69
2022-11-05T14:53:26.866Z,13.62
2022-11-05T14:56:03.649Z,13.74
2022-11-05T14:58:36.419Z,14.62
2022-11-05T15:01:11.038Z,14.91
2022-11-05T15:04:04.719Z,14.34
2022-11-05T15:06:37.071Z,13.65
2022-11-05T15:09:18.761Z,13.52
2022-11-05T15:12:02.553Z,14.26
2022-11-05T15:14:40.571Z,13.24
2022-11-05T15:17:29.672Z,13.30
2022-11-05T15:20:13.628Z,13.64
2022-11-05T15:22:50.011Z,13.61
2022-11-05T15:25:22.467Z,13.42
2022-11-05T15:28:02.409Z,13.59
2022-11-05T15:30:32.996Z,13.48
2022-11-05T15:33:21.878Z,13.74
2022-11-05T15:35:52.505Z,13.21
2022-11-05T15:38:31.622Z,13.33
2022-11-05T15:41:04.381Z,12.74
2022-11-05T15:43:35.505Z,12.90
2022-11-05T15:46:09.600Z,12.78
2022-11-05T15:48:42.731Z,12.41
2022-11-05T15:51:14.464Z,12.42
2022-11-05T15:54:28.557Z,12.18
2022-11-05T15:56:54.126Z,11.80
2022-11-05T15:59:25.632Z,11.82
2022-11-05T16:02:02.119Z,11.86
2022-11-05T16:04:37.262Z,11.95
2022-11-05T16:07:13.262Z,11.66
2022-11-05T16:09:45.789Z,12.05
2022-11-05T16:12:29.823Z,12.37
2022-11-05T16:15:05.322Z,12.15
2022-11-05T16:17:51.956Z,12.11
2022-11-05T16:20:32.112Z,12.02
2022-11-05T16:23:04.588Z,12.58
2022-11-05T16:25:40.458Z,12.65
2022-11-05T16:28:24.893Z,12.30
2022-11-05T16:30:57.286Z,11.63
2022-11-05T16:33:30.020Z,11.56
2022-11-05T16:36:02.643Z,11.63
2022-11-05T16:38:32.901Z,11.45
2022-11-05T16:41:02.964Z,11.40
2022-11-05T16:43:33.573Z,11.64
2022-11-05T16:46:04.273Z,11.64
2022-11-05T16:48:34.597Z,11.60
2022-11-05T16:51:08.111Z,11.31
2022-11-05T16:53:39.361Z,11.38
2022-11-05T16:56:16.235Z,11.35
2022-11-05T16:58:49.736Z,11.22
2022-11-05T17:01:23.716Z,11.15
2022-11-05T17:03:56.818Z,10.85
2022-11-05T17:06:30.630Z,10.79
2022-11-05T17:09:04.604Z,10.83
2022-11-05T17:11:35.648Z,10.71
2022-11-05T17:14:09.961Z,10.62
2022-11-05T17:16:41.978Z,10.59
2022-11-05T17:19:19.066Z,10.69
2022-11-05T17:21:51.495Z,10.48
2022-11-05T17:24:21.805Z,10.13
2022-11-05T17:26:52.008Z,10.21
2022-11-05T17:29:22.887Z,10.33
2022-11-05T17:31:56.028Z,10.68
2022-11-05T17:34:26.421Z,10.25
2022-11-05T17:37:05.188Z,10.84
2022-11-05T17:39:36.313Z,10.19
2022-11-05T17:42:07.596Z,10.17
2022-11-05T17:44:39.186Z,9.91
2022-11-05T17:47:09.137Z,10.02
2022-11-05T17:49:41.811Z,9.96
2022-11-05T17:52:14.670Z,9.87
2022-11-05T17:54:50.584Z,9.82
2022-11-05T17:57:21.099Z,9.45
2022-11-05T17:59:52.691Z,9.63
2022-11-05T18:02:22.999Z,9.50
2022-11-05T18:04:54.435Z,9.47
2022-11-05T18:07:26.973Z,9.19
2022-11-05T18:09:57.263Z,9.16
2022-11-05T18:12:27.091Z,9.35
2022-11-05T18:14:57.628Z,9.33
2022-11-05T18:17:27.934Z,9.33
2022-11-05T18:19:58.444Z,9.12
2022-11-05T18:22:31.182Z,9.26
2022-11-05T18:25:01.646Z,9.16
2022-11-05T18:27:31.727Z,9.18
2022-11-05T18:30:02.068Z,9.16
2022-11-05T18:32:41.503Z,9.34
2022-11-05T18:35:13.313Z,9.55
2022-11-05T18:37:46.504Z,9.60
2022-11-05T18:40:20.276Z,9.62
2022-11-05T18:42:50.384Z,9.74
2022-11-05T18:45:22.386Z,9.26
2022-11-05T18:47:55.740Z,9.47
2022-11-05T18:50:26.300Z,8.93
2022-11-05T18:53:02.801Z,9.32
2022-11-05T18:55:33.134Z,9.58
2022-11-05T18:58:03.107Z,9.36
2022-11-05T19:00:33.542Z,9.29
2022-11-05T19:03:03.752Z,9.00
2022-11-05T19:05:34.298Z,8.98
2022-11-05T19:08:08.444Z,8.98
2022-11-05T19:10:42.401Z,9.10
2022-11-05T19:13:17.132Z,8.99
2022-11-05T19:15:47.674Z,8.52
2022-11-05T19:18:17.531Z,8.78
2022-11-05T19:20:47.776Z,8.88
2022-11-05T19:23:20.564Z,8.86
2022-11-05T19:25:50.844Z,8.88
2022-11-05T19:28:20.929Z,8.76
2022-11-05T19:30:51.567Z,8.63
2022-11-05T19:33:21.721Z,8.52
2022-11-05T19:35:52.065Z,8.61
2022-11-05T19:38:28.283Z,8.67
2022-11-05T19:40:59.997Z,8.58
2022-11-05T19:43:29.892Z,8.69
2022-11-05T19:46:08.100Z,8.63
2022-11-05T19:48:38.825Z,8.70
2022-11-05T19:51:10.517Z,8.27
2022-11-05T19:53:43.583Z,8.17
2022-11-05T19:56:18.738Z,7.87
2022-11-05T19:58:48.995Z,8.04
2022-11-05T20:01:20.983Z,7.98
2022-11-05T20:03:51.481Z,8.11
2022-11-05T20:06:23.898Z,8.27
2022-11-05T20:09:20.590Z,8.20
2022-11-05T20:11:48.821Z,8.34
2022-11-05T20:14:19.433Z,7.98
2022-11-05T20:16:51.046Z,8.07
2022-11-05T20:19:23.331Z,7.74
2022-11-05T20:21:54.195Z,7.58
2022-11-05T20:24:26.933Z,7.71
2022-11-05T20:26:58.015Z,7.63
2022-11-05T20:29:34.967Z,7.61
2022-11-05T20:32:06.984Z,7.80
2022-11-05T20:34:37.773Z,7.76
2022-11-05T20:37:08.543Z,7.85
2022-11-05T20:39:41.039Z,7.74
2022-11-05T20:42:11.275Z,7.91
2022-11-05T20:44:41.303Z,7.79
2022-11-05T20:47:11.613Z,7.35
2022-11-05T20:49:41.475Z,7.44
2022-11-05T20:52:12.213Z,7.41
2022-11-05T20:54:44.747Z,7.58
2022-11-05T21:08:49.229Z,7.12
2022-11-05T21:16:24.469Z,7.12
2022-11-05T21:19:36.679Z,6.88
2022-11-05T21:22:37.387Z,6.97
2022-11-05T21:25:31.471Z,6.91
2022-11-05T21:28:42.819Z,6.75
2022-11-05T21:31:16.644Z,6.70
2022-11-05T21:39:53.762Z,6.90
2022-11-05T21:41:49.149Z,6.80
2022-11-05T21:44:25.525Z,6.71
2022-11-05T21:47:05.275Z,6.72
2022-11-05T21:49:41.211Z,6.72
2022-11-05T21:52:26.477Z,6.63
2022-11-05T21:55:22.227Z,6.73
2022-11-05T21:58:14.557Z,6.83
2022-11-05T22:00:51.368Z,6.84
2022-11-05T22:03:43.471Z,6.93
2022-11-05T22:06:51.166Z,6.89
2022-11-05T22:26:57.783Z,6.54
2022-11-05T22:30:23.164Z,6.42
2022-11-05T22:33:15.542Z,6.46
2022-11-05T22:36:15.711Z,6.51
2022-11-05T22:39:39.645Z,6.47
2022-11-05T22:42:56.941Z,6.51
2022-11-05T22:46:21.867Z,6.42
2022-11-05T22:49:12.348Z,6.36
2022-11-05T22:51:43.140Z,6.31
2022-11-05T22:54:13.861Z,6.25
2022-11-05T22:56:46.109Z,6.12
2022-11-05T22:59:19.912Z,6.23
2022-11-05T23:01:51.073Z,6.15
2022-11-05T23:04:21.305Z,6.32
2022-11-05T23:07:04.060Z,6.03
2022-11-05T23:09:50.445Z,6.11
2022-11-05T23:12:27.499Z,6.11
2022-11-05T23:15:01.768Z,6.07
2022-11-05T23:17:45.196Z,6.05
2022-11-05T23:20:29.585Z,5.97
2022-11-05T23:23:13.105Z,6.01
2022-11-05T23:25:43.435Z,5.98
2022-11-05T23:28:15.509Z,6.02
2022-11-05T23:31:00.615Z,6.01
2022-11-05T23:33:33.259Z,5.97
2022-11-05T23:36:32.887Z,5.88
2022-11-05T23:39:03.828Z,5.88
2022-11-05T23:41:46.864Z,6.02
2022-11-05T23:44:31.583Z,5.91
2022-11-05T23:47:17.082Z,5.96
2022-11-05T23:57:46.260Z,5.91
